Time;durP1;ratioP1;P1;durP2;ratioP2;P2;SDS_P1;SDS_P2;PMS_P1;PMS_P2;Temp;Humidity;BMP_temperature;BMP_pressure;BME280_temperature;BME280_humidity;BME280_pressure;Samples;Min_cycle;Max_cycle;Signal;HPM_P1;HPM_P2
2022/02/05 00:00:37;;;;;;;4.13;1.80;;;;;;;;;;4524944;28;20139;-64
2022/02/05 00:03:39;;;;;;;5.82;2.00;;;;;;;;;;4524200;28;20025;-63
2022/02/05 00:05:29;;;;;;;2.90;1.60;;;;;;;;;;4517874;28;20161;-64
2022/02/05 00:07:46;;;;;;;3.95;1.88;;;;;;;;;;4524146;28;20663;-64
2022/02/05 00:41:27;;;;;;;2.95;1.58;;;;;;;;;;4527218;28;21269;-64
2022/02/05 00:43:39;;;;;;;3.40;1.52;;;;;;;;;;4528953;28;20029;-63
2022/02/05 00:45:53;;;;;;;3.72;1.80;;;;;;;;;;4526601;28;20397;-63
2022/02/05 00:48:05;;;;;;;2.75;1.50;;;;;;;;;;4527115;28;20076;-63
2022/02/05 00:50:21;;;;;;;3.83;1.60;;;;;;;;;;4525406;28;20040;-64
2022/02/05 00:52:31;;;;;;;3.80;1.58;;;;;;;;;;4526102;28;20038;-64
2022/02/05 00:54:47;;;;;;;3.58;1.83;;;;;;;;;;4526793;28;20060;-64
2022/02/05 00:59:15;;;;;;;3.70;1.70;;;;;;;;;;4526407;28;20028;-63
2022/02/05 01:01:26;;;;;;;3.38;1.70;;;;;;;;;;4526643;28;20018;-64
2022/02/05 01:03:37;;;;;;;4.93;1.93;;;;;;;;;;4526390;28;20033;-64
2022/02/05 01:05:48;;;;;;;3.95;1.80;;;;;;;;;;4526466;28;20025;-64
2022/02/05 01:07:58;;;;;;;4.07;1.57;;;;;;;;;;4526122;28;20037;-63
2022/02/05 01:10:09;;;;;;;3.13;1.73;;;;;;;;;;4525185;28;20029;-63
2022/02/05 01:12:19;;;;;;;3.43;1.80;;;;;;;;;;4527903;28;20033;-64
2022/02/05 01:14:41;;;;;;;3.93;1.60;;;;;;;;;;4525881;28;32615;-64
2022/02/05 01:19:05;;;;;;;3.38;1.45;;;;;;;;;;4534732;28;20040;-64
2022/02/05 01:23:39;;;;;;;3.73;1.50;;;;;;;;;;4526886;28;20028;-63
2022/02/05 01:25:58;;;;;;;4.68;2.00;;;;;;;;;;4526780;28;20140;-64
2022/02/05 01:28:14;;;;;;;3.13;1.58;;;;;;;;;;4525988;28;20117;-64
2022/02/05 01:30:33;;;;;;;2.88;1.58;;;;;;;;;;4527243;28;20935;-63
2022/02/05 01:32:53;;;;;;;2.88;1.48;;;;;;;;;;4531801;28;20057;-65
2022/02/05 01:35:12;;;;;;;2.90;1.67;;;;;;;;;;4526717;28;20025;-64
2022/02/05 01:54:34;;;;;;;1.80;1.50;;;;;;;;;;4526371;28;20030;-63
2022/02/05 01:56:56;;;;;;;4.07;1.70;;;;;;;;;;4527493;28;20017;-63
2022/02/05 02:06:34;;;;;;;3.35;1.55;;;;;;;;;;4524224;28;20552;-63
2022/02/05 02:12:05;;;;;;;2.22;1.33;;;;;;;;;;4525164;28;20045;-63
2022/02/05 02:23:38;;;;;;;4.13;1.50;;;;;;;;;;4525188;28;20021;-63
2022/02/05 02:30:21;;;;;;;3.03;1.27;;;;;;;;;;4526788;28;20637;-64
2022/02/05 02:32:33;;;;;;;;;;;;;;;;;;4525782;28;20045;-63
2022/02/05 02:34:49;;;;;;;2.25;1.30;;;;;;;;;;4523991;28;19913;-63
2022/02/05 02:37:08;;;;;;;4.03;1.50;;;;;;;;;;4525812;28;20087;-63
2022/02/05 02:39:24;;;;;;;2.92;1.42;;;;;;;;;;4524862;28;20056;-64
2022/02/05 02:41:43;;;;;;;3.45;1.55;;;;;;;;;;4541291;28;20036;-64
2022/02/05 02:43:53;;;;;;;3.42;1.40;;;;;;;;;;4526029;28;20030;-63
2022/02/05 02:46:05;;;;;;;1.50;1.27;;;;;;;;;;4519656;28;20022;-64
2022/02/05 02:48:15;;;;;;;4.97;1.52;;;;;;;;;;4517740;28;21209;-63
2022/02/05 02:56:29;;;;;;;2.40;1.43;;;;;;;;;;4525970;28;20040;-63
2022/02/05 02:58:08;;;;;;;3.13;1.33;;;;;;;;;;4509695;28;20044;-63
2022/02/05 03:00:18;;;;;;;2.38;1.45;;;;;;;;;;4524365;28;20018;-63
2022/02/05 03:02:29;;;;;;;2.63;1.40;;;;;;;;;;4524344;28;34141;-63
2022/02/05 03:04:39;;;;;;;2.87;1.40;;;;;;;;;;4510985;28;21270;-64
2022/02/05 03:06:50;;;;;;;3.53;1.57;;;;;;;;;;4524350;28;42309;-63
2022/02/05 03:09:00;;;;;;;2.97;1.33;;;;;;;;;;4526122;28;20029;-63
2022/02/05 03:11:12;;;;;;;1.77;1.20;;;;;;;;;;4524970;28;20037;-64
2022/02/05 03:13:23;;;;;;;2.95;1.40;;;;;;;;;;4523763;28;20030;-63
2022/02/05 03:15:38;;;;;;;2.83;1.50;;;;;;;;;;4526080;28;33750;-63
2022/02/05 03:18:03;;;;;;;4.45;1.50;;;;;;;;;;4525918;28;20030;-64
2022/02/05 03:20:14;;;;;;;3.15;1.50;;;;;;;;;;4526009;28;20619;-64
2022/02/05 03:22:24;;;;;;;2.73;1.33;;;;;;;;;;4522995;28;37710;-64
2022/02/05 03:24:35;;;;;;;2.87;1.17;;;;;;;;;;4509417;28;20056;-64
2022/02/05 03:26:45;;;;;;;3.23;1.37;;;;;;;;;;4526083;28;33416;-64
2022/02/05 03:28:56;;;;;;;3.53;1.80;;;;;;;;;;4526477;28;20397;-64
2022/02/05 03:31:06;;;;;;;3.83;1.40;;;;;;;;;;4524013;28;43467;-64
2022/02/05 03:33:16;;;;;;;2.87;1.30;;;;;;;;;;4525821;28;20018;-64
2022/02/05 03:35:27;;;;;;;2.57;1.30;;;;;;;;;;4524741;28;20034;-64
2022/02/05 03:37:38;;;;;;;2.33;1.37;;;;;;;;;;4524971;28;20033;-66
2022/02/05 03:39:48;;;;;;;2.70;1.20;;;;;;;;;;4524692;28;21861;-64
2022/02/05 03:41:59;;;;;;;3.40;1.37;;;;;;;;;;4525392;28;20149;-64
2022/02/05 03:44:09;;;;;;;3.83;1.50;;;;;;;;;;4524964;28;20038;-64
2022/02/05 03:46:20;;;;;;;2.20;1.30;;;;;;;;;;4524928;28;37818;-64
2022/02/05 03:48:31;;;;;;;2.10;1.17;;;;;;;;;;4524978;28;20113;-66
2022/02/05 03:50:41;;;;;;;3.43;1.30;;;;;;;;;;4524380;28;20280;-64
2022/02/05 03:52:52;;;;;;;2.83;1.23;;;;;;;;;;4525701;28;20033;-64
2022/02/05 03:55:02;;;;;;;4.03;1.60;;;;;;;;;;4523683;28;20033;-64
2022/02/05 03:57:13;;;;;;;4.40;1.50;;;;;;;;;;4525119;28;20021;-64
2022/02/05 03:59:23;;;;;;;4.30;1.37;;;;;;;;;;4525358;28;20017;-64
2022/02/05 04:01:33;;;;;;;3.23;1.53;;;;;;;;;;4527131;28;20030;-64
2022/02/05 04:03:44;;;;;;;2.60;1.27;;;;;;;;;;4526181;28;20169;-64
2022/02/05 04:05:54;;;;;;;4.13;1.57;;;;;;;;;;4526999;28;20075;-64
2022/02/05 04:08:08;;;;;;;2.83;1.20;;;;;;;;;;4527987;28;20037;-64
2022/02/05 04:10:25;;;;;;;2.88;1.33;;;;;;;;;;4526798;28;20024;-64
2022/02/05 04:17:34;;;;;;;2.80;1.40;;;;;;;;;;4527654;28;20083;-64
2022/02/05 04:19:44;;;;;;;2.90;1.33;;;;;;;;;;4527569;28;20129;-64
2022/02/05 04:21:54;;;;;;;3.80;1.63;;;;;;;;;;4529373;28;20026;-64
2022/02/05 04:24:06;;;;;;;2.90;1.40;;;;;;;;;;4527194;28;36281;-64
2022/02/05 04:26:18;;;;;;;3.58;1.42;;;;;;;;;;4531070;28;20224;-64
2022/02/05 04:28:28;;;;;;;3.05;1.40;;;;;;;;;;4528882;28;20572;-64
2022/02/05 04:30:39;;;;;;;4.43;1.60;;;;;;;;;;4528048;28;20033;-64
2022/02/05 04:32:49;;;;;;;3.87;1.40;;;;;;;;;;4527440;28;20061;-64
2022/02/05 04:35:00;;;;;;;3.63;1.67;;;;;;;;;;4526420;28;44247;-64
2022/02/05 04:37:10;;;;;;;3.33;1.40;;;;;;;;;;4528001;28;20029;-64
2022/02/05 04:39:22;;;;;;;3.03;1.20;;;;;;;;;;4529939;28;20090;-64
2022/02/05 04:41:41;;;;;;;3.35;1.40;;;;;;;;;;4529355;28;20824;-64
2022/02/05 04:53:40;;;;;;;3.17;1.33;;;;;;;;;;4526079;28;20586;-64
2022/02/05 05:05:44;;;;;;;2.53;1.20;;;;;;;;;;4535633;28;20040;-64
2022/02/05 05:08:08;;;;;;;3.70;1.65;;;;;;;;;;4526643;28;20084;-64
2022/02/05 05:20:20;;;;;;;4.57;1.83;;;;;;;;;;4498503;28;20033;-64
2022/02/05 05:22:30;;;;;;;4.07;1.53;;;;;;;;;;4499156;28;20021;-64
2022/02/05 05:24:42;;;;;;;3.27;1.50;;;;;;;;;;4503290;28;20045;-64
2022/02/05 05:26:53;;;;;;;3.90;1.52;;;;;;;;;;4529669;28;20033;-64
2022/02/05 05:29:03;;;;;;;2.78;1.33;;;;;;;;;;4525345;28;20120;-64
2022/02/05 05:31:14;;;;;;;3.23;1.30;;;;;;;;;;4525768;28;20147;-64
2022/02/05 05:33:24;;;;;;;3.40;1.50;;;;;;;;;;4524349;28;43596;-64
2022/02/05 05:35:35;;;;;;;3.70;1.60;;;;;;;;;;4527589;28;20030;-64
2022/02/05 05:37:49;;;;;;;2.60;1.20;;;;;;;;;;4525847;28;20032;-65
2022/02/05 05:40:00;;;;;;;2.72;1.23;;;;;;;;;;4518332;28;20482;-64
2022/02/05 05:42:15;;;;;;;3.23;1.47;;;;;;;;;;4525831;28;20033;-64
2022/02/05 05:46:50;;;;;;;4.85;1.70;;;;;;;;;;4525083;28;20034;-64
2022/02/05 05:49:22;;;;;;;2.70;1.52;;;;;;;;;;4526808;28;20033;-64
2022/02/05 05:51:32;;;;;;;3.58;1.55;;;;;;;;;;4525060;28;20045;-64
2022/02/05 05:53:43;;;;;;;3.67;1.60;;;;;;;;;;4526763;28;20528;-64
2022/02/05 05:55:53;;;;;;;2.63;1.30;;;;;;;;;;4525944;28;42111;-64
2022/02/05 05:58:04;;;;;;;5.03;2.07;;;;;;;;;;4526109;28;20742;-64
2022/02/05 06:00:14;;;;;;;4.03;1.80;;;;;;;;;;4525714;28;20065;-64
2022/02/05 06:02:25;;;;;;;3.50;1.53;;;;;;;;;;4526491;28;20569;-64
2022/02/05 06:04:36;;;;;;;4.10;1.53;;;;;;;;;;4527615;28;20043;-64
2022/02/05 06:06:47;;;;;;;2.95;1.27;;;;;;;;;;4527790;28;20040;-64
2022/02/05 06:08:57;;;;;;;2.90;1.37;;;;;;;;;;4523862;28;20037;-64
2022/02/05 06:11:07;;;;;;;2.53;1.10;;;;;;;;;;4526351;28;20148;-64
2022/02/05 06:13:18;;;;;;;4.13;1.70;;;;;;;;;;4523892;28;36866;-64
2022/02/05 06:15:28;;;;;;;3.83;1.47;;;;;;;;;;4526377;28;25172;-64
2022/02/05 06:17:39;;;;;;;3.70;1.40;;;;;;;;;;4524744;28;20029;-64
2022/02/05 06:19:50;;;;;;;3.53;1.50;;;;;;;;;;4526590;28;20112;-64
2022/02/05 06:22:00;;;;;;;3.10;1.33;;;;;;;;;;4528067;28;20036;-63
2022/02/05 06:24:11;;;;;;;2.53;1.40;;;;;;;;;;4525931;28;20434;-63
2022/02/05 06:26:21;;;;;;;3.27;1.60;;;;;;;;;;4524849;28;20064;-64
2022/02/05 06:28:31;;;;;;;4.17;1.70;;;;;;;;;;4527295;28;20029;-64
2022/02/05 06:30:42;;;;;;;2.67;1.30;;;;;;;;;;4526211;28;20030;-64
2022/02/05 06:32:53;;;;;;;2.90;1.50;;;;;;;;;;4524541;28;24893;-63
2022/02/05 06:35:05;;;;;;;3.50;1.47;;;;;;;;;;4526118;28;20030;-64
2022/02/05 06:37:15;;;;;;;3.38;1.48;;;;;;;;;;4523952;28;20051;-63
2022/02/05 06:39:26;;;;;;;4.03;1.53;;;;;;;;;;4526876;28;20120;-64
2022/02/05 06:41:36;;;;;;;4.73;1.67;;;;;;;;;;4526999;28;35196;-64
2022/02/05 06:43:47;;;;;;;2.80;1.30;;;;;;;;;;4523812;28;32507;-64
2022/02/05 06:45:58;;;;;;;4.27;1.67;;;;;;;;;;4523673;28;20028;-64
2022/02/05 06:48:09;;;;;;;3.60;1.48;;;;;;;;;;4525054;28;20025;-64
2022/02/05 06:50:20;;;;;;;4.93;1.73;;;;;;;;;;4526680;28;20029;-65
2022/02/05 06:52:30;;;;;;;3.47;1.83;;;;;;;;;;4524349;28;33316;-64
2022/02/05 06:54:40;;;;;;;7.23;3.30;;;;;;;;;;4528274;28;20029;-64
2022/02/05 06:56:51;;;;;;;4.80;2.67;;;;;;;;;;4525152;28;20533;-63
2022/02/05 06:59:01;;;;;;;4.97;1.77;;;;;;;;;;4525103;28;20772;-64
2022/02/05 07:01:12;;;;;;;2.97;1.60;;;;;;;;;;4524809;28;22231;-64
2022/02/05 07:03:22;;;;;;;4.60;2.03;;;;;;;;;;4525218;28;20052;-64
2022/02/05 07:05:33;;;;;;;5.37;1.60;;;;;;;;;;4524856;28;26199;-63
2022/02/05 07:07:43;;;;;;;5.27;1.73;;;;;;;;;;4526676;28;20069;-64
2022/02/05 07:09:54;;;;;;;3.70;1.70;;;;;;;;;;4524915;28;20029;-64
2022/02/05 07:12:06;;;;;;;4.90;1.70;;;;;;;;;;4524444;28;20083;-64
2022/02/05 07:14:19;;;;;;;3.53;1.70;;;;;;;;;;4524927;28;20474;-64
2022/02/05 07:16:41;;;;;;;5.28;1.90;;;;;;;;;;4526184;28;20167;-64
2022/02/05 07:21:39;;;;;;;4.63;1.90;;;;;;;;;;4523823;28;20033;-64
2022/02/05 07:31:13;;;;;;;3.67;1.48;;;;;;;;;;4523427;28;20041;-64
2022/02/05 07:33:24;;;;;;;4.53;1.95;;;;;;;;;;4532720;28;20021;-64
2022/02/05 07:35:34;;;;;;;3.73;1.30;;;;;;;;;;4515035;28;23239;-64
2022/02/05 07:37:45;;;;;;;3.57;1.77;;;;;;;;;;4522158;28;20021;-64
2022/02/05 07:39:55;;;;;;;3.70;1.70;;;;;;;;;;4523127;28;20032;-64
2022/02/05 07:42:07;;;;;;;4.17;1.47;;;;;;;;;;4525074;28;20018;-64
2022/02/05 07:44:17;;;;;;;4.05;1.98;;;;;;;;;;4524020;28;20069;-64
2022/02/05 07:46:28;;;;;;;5.57;3.07;;;;;;;;;;4523030;28;20113;-64
2022/02/05 07:48:39;;;;;;;4.77;2.47;;;;;;;;;;4524052;28;20405;-64
2022/02/05 07:50:49;;;;;;;3.45;2.00;;;;;;;;;;4523270;28;20026;-64
2022/02/05 07:53:00;;;;;;;4.57;2.10;;;;;;;;;;4523770;28;20033;-64
2022/02/05 07:55:10;;;;;;;4.17;2.10;;;;;;;;;;4523301;28;20120;-63
2022/02/05 07:57:20;;;;;;;6.07;3.10;;;;;;;;;;4523246;28;20022;-64
2022/02/05 07:59:31;;;;;;;3.23;1.57;;;;;;;;;;4523919;28;20036;-63
2022/02/05 08:01:42;;;;;;;4.47;1.60;;;;;;;;;;4523645;28;20402;-63
2022/02/05 08:03:52;;;;;;;3.60;1.70;;;;;;;;;;4532316;28;20033;-63
2022/02/05 08:06:05;;;;;;;3.83;1.60;;;;;;;;;;4527510;28;20469;-63
2022/02/05 08:08:19;;;;;;;4.45;1.65;;;;;;;;;;4524734;28;21019;-63
2022/02/05 08:10:35;;;;;;;3.85;1.42;;;;;;;;;;4524316;28;20021;-63
2022/02/05 08:12:52;;;;;;;4.13;1.73;;;;;;;;;;4523825;28;20523;-64
2022/02/05 08:15:02;;;;;;;4.20;1.75;;;;;;;;;;4525374;28;20108;-63
2022/02/05 08:17:21;;;;;;;4.93;1.80;;;;;;;;;;4524378;28;20030;-63
2022/02/05 08:19:32;;;;;;;3.33;1.42;;;;;;;;;;4523399;28;20083;-64
2022/02/05 08:21:42;;;;;;;2.60;1.37;;;;;;;;;;4525870;28;20030;-63
2022/02/05 08:23:52;;;;;;;4.53;1.93;;;;;;;;;;4527417;28;20049;-64
2022/02/05 08:26:04;;;;;;;4.63;1.70;;;;;;;;;;4523947;28;20477;-63
2022/02/05 08:28:15;;;;;;;3.78;1.60;;;;;;;;;;4524098;28;20056;-63
2022/02/05 08:30:25;;;;;;;4.30;1.90;;;;;;;;;;4526125;28;20124;-64
2022/02/05 08:32:36;;;;;;;3.60;1.73;;;;;;;;;;4523025;28;20822;-64
2022/02/05 08:34:47;;;;;;;3.92;1.70;;;;;;;;;;4523442;28;20021;-64
2022/02/05 08:36:58;;;;;;;3.97;1.70;;;;;;;;;;4525847;28;41443;-63
2022/02/05 08:39:09;;;;;;;;;;;;;;;;;;4524338;28;20484;-64
2022/02/05 08:41:20;;;;;;;3.15;1.60;;;;;;;;;;4525337;28;19935;-63
2022/02/05 08:43:31;;;;;;;3.92;1.60;;;;;;;;;;4524065;28;20092;-63
2022/02/05 08:45:41;;;;;;;6.47;2.43;;;;;;;;;;4525096;28;20072;-63
2022/02/05 08:47:53;;;;;;;5.10;2.37;;;;;;;;;;4523976;28;20026;-64
2022/02/05 08:50:04;;;;;;;4.60;2.22;;;;;;;;;;4525950;28;20590;-63
2022/02/05 08:52:14;;;;;;;4.27;2.03;;;;;;;;;;4526588;28;20219;-63
2022/02/05 08:54:26;;;;;;;5.63;2.15;;;;;;;;;;4526227;28;20034;-60
2022/02/05 08:56:36;;;;;;;5.78;2.78;;;;;;;;;;4527170;28;21203;-64
2022/02/05 08:58:51;;;;;;;4.93;1.80;;;;;;;;;;4525401;28;20175;-63
2022/02/05 09:03:34;;;;;;;3.05;1.48;;;;;;;;;;4527382;28;20051;-63
2022/02/05 09:05:47;;;;;;;4.32;1.60;;;;;;;;;;4524960;28;20025;-63
2022/02/05 09:07:58;;;;;;;3.47;1.35;;;;;;;;;;4534021;28;20595;-63
2022/02/05 09:14:49;;;;;;;5.10;1.90;;;;;;;;;;4527007;28;20016;-63
2022/02/05 09:17:00;;;;;;;3.42;1.60;;;;;;;;;;4526572;28;20104;-63
2022/02/05 09:19:11;;;;;;;3.83;1.53;;;;;;;;;;4526083;28;20034;-63
2022/02/05 09:21:21;;;;;;;3.90;1.97;;;;;;;;;;4526348;28;20029;-63
2022/02/05 09:23:32;;;;;;;6.00;2.40;;;;;;;;;;4525192;28;20029;-63
2022/02/05 09:25:42;;;;;;;5.47;2.50;;;;;;;;;;4524917;28;20037;-63
2022/02/05 09:27:53;;;;;;;14.23;9.43;;;;;;;;;;4513950;28;20022;-64
2022/02/05 09:30:11;;;;;;;9.23;5.03;;;;;;;;;;4527598;28;20037;-63
2022/02/05 09:32:22;;;;;;;9.82;5.93;;;;;;;;;;4512719;28;20604;-63
2022/02/05 09:34:32;;;;;;;8.97;4.73;;;;;;;;;;4540583;28;20978;-63
2022/02/05 09:36:43;;;;;;;11.63;6.93;;;;;;;;;;4534082;28;48073;-64
2022/02/05 09:38:56;;;;;;;7.57;3.73;;;;;;;;;;4525798;28;20028;-64
2022/02/05 09:41:08;;;;;;;5.57;2.35;;;;;;;;;;4527310;28;20081;-63
2022/02/05 09:43:27;;;;;;;5.57;2.67;;;;;;;;;;4525945;28;20100;-63
2022/02/05 09:45:37;;;;;;;5.60;2.28;;;;;;;;;;4534313;28;20041;-64
2022/02/05 09:47:50;;;;;;;5.07;2.00;;;;;;;;;;4525418;28;20029;-63
2022/02/05 09:50:01;;;;;;;4.55;1.67;;;;;;;;;;4524539;28;20032;-63
2022/02/05 09:52:20;;;;;;;5.38;2.10;;;;;;;;;;4525471;28;20029;-64
2022/02/05 09:54:30;;;;;;;3.33;1.60;;;;;;;;;;4525470;28;20026;-63
2022/02/05 09:56:41;;;;;;;3.40;1.67;;;;;;;;;;4524717;28;20025;-64
2022/02/05 09:58:53;;;;;;;3.20;1.37;;;;;;;;;;4525182;28;20030;-63
2022/02/05 10:01:11;;;;;;;4.43;1.75;;;;;;;;;;4525686;28;20099;-63
2022/02/05 10:03:24;;;;;;;3.45;1.50;;;;;;;;;;4525867;28;20029;-63
2022/02/05 10:05:37;;;;;;;4.72;1.63;;;;;;;;;;4540709;28;20717;-64
2022/02/05 10:07:57;;;;;;;3.30;1.33;;;;;;;;;;4523590;28;20603;-63
2022/02/05 10:10:08;;;;;;;4.22;1.60;;;;;;;;;;4524430;28;20025;-63
2022/02/05 10:12:18;;;;;;;3.83;1.33;;;;;;;;;;4524857;28;20457;-63
2022/02/05 10:14:32;;;;;;;3.10;1.37;;;;;;;;;;4532856;28;20116;-64
2022/02/05 10:16:50;;;;;;;4.53;1.60;;;;;;;;;;4525239;28;20032;-64
2022/02/05 10:19:01;;;;;;;4.97;1.75;;;;;;;;;;4523362;28;20018;-63
2022/02/05 10:21:24;;;;;;;3.63;1.50;;;;;;;;;;4525479;28;20941;-64
2022/02/05 10:23:35;;;;;;;3.83;1.40;;;;;;;;;;4525624;28;20029;-64
2022/02/05 10:25:50;;;;;;;4.93;1.65;;;;;;;;;;4523572;28;29061;-63
2022/02/05 10:28:00;;;;;;;5.30;1.50;;;;;;;;;;4523617;28;20619;-63
2022/02/05 10:30:25;;;;;;;3.83;1.20;;;;;;;;;;4525734;28;23890;-63
2022/02/05 10:32:45;;;;;;;3.53;1.30;;;;;;;;;;4524133;28;20156;-64
2022/02/05 10:37:17;;;;;;;4.25;1.60;;;;;;;;;;4523753;28;20045;-63
2022/02/05 10:39:31;;;;;;;3.75;1.50;;;;;;;;;;4525631;28;21124;-63
2022/02/05 10:44:15;;;;;;;2.22;1.20;;;;;;;;;;4525843;28;20128;-63
2022/02/05 10:46:36;;;;;;;4.10;1.67;;;;;;;;;;4526014;28;20021;-63
2022/02/05 10:48:46;;;;;;;2.33;1.30;;;;;;;;;;4525560;28;20064;-63
2022/02/05 10:51:00;;;;;;;2.77;1.27;;;;;;;;;;4525020;28;20116;-63
2022/02/05 10:53:43;;;;;;;4.75;1.70;;;;;;;;;;4525024;28;20033;-63
2022/02/05 11:05:22;;;;;;;4.47;1.63;;;;;;;;;;4532943;28;20565;-63
2022/02/05 11:07:32;;;;;;;4.85;1.52;;;;;;;;;;4523634;28;20029;-63
2022/02/05 11:09:45;;;;;;;2.67;1.17;;;;;;;;;;4524465;28;20026;-63
2022/02/05 11:17:08;;;;;;;3.13;1.98;;;;;;;;;;4513111;28;20697;-63
2022/02/05 11:19:18;;;;;;;3.80;1.40;;;;;;;;;;4523856;28;20753;-63
2022/02/05 11:21:30;;;;;;;4.30;1.45;;;;;;;;;;4514234;28;20046;-63
2022/02/05 11:23:53;;;;;;;3.33;1.30;;;;;;;;;;4525486;28;20029;-63
2022/02/05 11:26:05;;;;;;;6.20;2.42;;;;;;;;;;4524271;28;20581;-63
2022/02/05 11:28:43;;;;;;;4.22;1.60;;;;;;;;;;4508992;28;20045;-63
2022/02/05 11:30:55;;;;;;;2.80;1.40;;;;;;;;;;4539579;28;20127;-63
2022/02/05 11:33:19;;;;;;;3.33;1.50;;;;;;;;;;4526532;28;20111;-63
2022/02/05 11:35:46;;;;;;;3.08;1.50;;;;;;;;;;4524549;28;20040;-63
2022/02/05 11:38:02;;;;;;;3.22;1.30;;;;;;;;;;4526532;28;20665;-63
2022/02/05 11:40:12;;;;;;;4.10;1.40;;;;;;;;;;4525811;28;20136;-63
2022/02/05 11:42:34;;;;;;;2.50;1.10;;;;;;;;;;4524211;28;37924;-63
2022/02/05 11:44:44;;;;;;;3.58;1.35;;;;;;;;;;4522420;28;20029;-63
2022/02/05 11:47:07;;;;;;;3.90;1.53;;;;;;;;;;4522525;28;20417;-62
2022/02/05 11:49:17;;;;;;;3.63;1.50;;;;;;;;;;4522645;28;20034;-63
2022/02/05 11:51:32;;;;;;;2.80;1.10;;;;;;;;;;4523953;28;32830;-63
2022/02/05 11:53:55;;;;;;;3.30;1.33;;;;;;;;;;4526036;28;20691;-62
2022/02/05 11:56:15;;;;;;;2.95;1.30;;;;;;;;;;4524053;28;20087;-63
2022/02/05 11:58:25;;;;;;;4.65;1.40;;;;;;;;;;4525883;28;20021;-63
2022/02/05 12:00:56;;;;;;;3.13;1.13;;;;;;;;;;4524357;28;21837;-63
2022/02/05 12:03:34;;;;;;;3.25;1.33;;;;;;;;;;4523776;28;20629;-63
2022/02/05 12:05:50;;;;;;;3.50;1.40;;;;;;;;;;4522213;28;20033;-63
2022/02/05 12:08:03;;;;;;;4.57;1.80;;;;;;;;;;4525293;28;20128;-63
2022/02/05 12:10:45;;;;;;;3.80;1.77;;;;;;;;;;4522578;28;20147;-63
2022/02/05 12:13:20;;;;;;;4.40;2.35;;;;;;;;;;4525125;28;20199;-63
2022/02/05 12:15:30;;;;;;;4.78;2.40;;;;;;;;;;4523180;28;20037;-63
2022/02/05 12:20:22;;;;;;;4.93;1.90;;;;;;;;;;4524157;28;20037;-63
2022/02/05 12:24:14;;;;;;;4.45;2.40;;;;;;;;;;4524988;28;20129;-63
2022/02/05 12:25:33;;;;;;;4.80;2.08;;;;;;;;;;4516940;28;20087;-63
2022/02/05 12:27:45;;;;;;;;;;;;;;;;;;4526492;28;20093;-63
2022/02/05 12:30:27;;;;;;;3.78;1.60;;;;;;;;;;4527316;28;19913;-63
2022/02/05 12:32:37;;;;;;;3.90;1.40;;;;;;;;;;4527352;28;20128;-63
2022/02/05 12:34:48;;;;;;;4.00;1.40;;;;;;;;;;4527831;28;22049;-62
2022/02/05 12:37:00;;;;;;;3.33;1.43;;;;;;;;;;4526821;28;20034;-63
2022/02/05 12:39:19;;;;;;;3.95;1.80;;;;;;;;;;4495131;28;20026;-63
2022/02/05 12:41:30;;;;;;;3.92;1.70;;;;;;;;;;4536217;28;20146;-64
2022/02/05 12:43:49;;;;;;;3.33;2.00;;;;;;;;;;4525786;28;20068;-63
2022/02/05 12:46:10;;;;;;;4.15;1.40;;;;;;;;;;4528482;28;20037;-63
2022/02/05 12:48:23;;;;;;;5.18;2.10;;;;;;;;;;4527900;28;20580;-63
2022/02/05 12:50:37;;;;;;;3.15;1.65;;;;;;;;;;4526402;28;20669;-63
2022/02/05 12:52:49;;;;;;;3.00;1.42;;;;;;;;;;4528199;28;20041;-63
2022/02/05 12:55:02;;;;;;;3.10;1.30;;;;;;;;;;4528553;28;20069;-63
2022/02/05 12:57:17;;;;;;;4.00;1.08;;;;;;;;;;4529193;28;21311;-63
2022/02/05 12:59:36;;;;;;;1.83;0.98;;;;;;;;;;4526851;28;21061;-63
2022/02/05 13:01:54;;;;;;;3.42;1.55;;;;;;;;;;4529400;28;20128;-63
2022/02/05 13:04:12;;;;;;;2.88;1.00;;;;;;;;;;4527927;28;20076;-64
2022/02/05 13:06:22;;;;;;;4.93;1.70;;;;;;;;;;4525464;28;20992;-63
2022/02/05 13:08:50;;;;;;;2.17;1.20;;;;;;;;;;4526268;28;28745;-64
2022/02/05 13:11:00;;;;;;;4.07;1.60;;;;;;;;;;4525981;28;20104;-64
2022/02/05 13:13:12;;;;;;;3.13;1.20;;;;;;;;;;4526228;28;40386;-64
2022/02/05 13:15:27;;;;;;;4.78;1.60;;;;;;;;;;4526318;28;20037;-64
2022/02/05 13:24:49;;;;;;;6.50;3.78;;;;;;;;;;4526630;28;20166;-63
2022/02/05 13:35:19;;;;;;;2.67;1.55;;;;;;;;;;4493063;28;20049;-63
2022/02/05 13:37:36;;;;;;;3.73;1.33;;;;;;;;;;4527115;28;20029;-64
2022/02/05 13:40:01;;;;;;;3.20;1.20;;;;;;;;;;4518623;28;20033;-64
2022/02/05 13:42:19;;;;;;;2.17;0.90;;;;;;;;;;4526991;28;20044;-64
2022/02/05 13:47:07;;;;;;;2.58;0.90;;;;;;;;;;4525144;28;20044;-64
2022/02/05 13:49:21;;;;;;;3.20;1.25;;;;;;;;;;4525319;28;20029;-64
2022/02/05 13:51:34;;;;;;;2.60;1.02;;;;;;;;;;4524920;28;20577;-64
2022/02/05 13:53:52;;;;;;;2.83;1.05;;;;;;;;;;4526493;28;20041;-64
2022/02/05 13:56:06;;;;;;;3.03;0.95;;;;;;;;;;4508925;28;20054;-64
2022/02/05 13:58:16;;;;;;;2.83;1.23;;;;;;;;;;4527136;28;20026;-64
2022/02/05 14:01:03;;;;;;;3.77;1.23;;;;;;;;;;4526049;28;29021;-64
2022/02/05 14:03:36;;;;;;;2.83;1.10;;;;;;;;;;4480900;28;20034;-64
2022/02/05 14:06:16;;;;;;;3.53;1.30;;;;;;;;;;4516773;28;20211;-64
2022/02/05 14:08:47;;;;;;;4.53;1.50;;;;;;;;;;4526474;28;20041;-64
2022/02/05 14:11:04;;;;;;;3.47;1.00;;;;;;;;;;4528460;28;20056;-64
2022/02/05 14:13:17;;;;;;;2.90;1.08;;;;;;;;;;4527813;28;20033;-64
2022/02/05 14:15:29;;;;;;;2.65;0.93;;;;;;;;;;4526266;28;20084;-64
2022/02/05 14:17:39;;;;;;;3.33;1.60;;;;;;;;;;4534301;28;20029;-64
2022/02/05 14:19:50;;;;;;;4.80;1.70;;;;;;;;;;4527766;28;21494;-64
2022/02/05 14:22:00;;;;;;;4.00;2.23;;;;;;;;;;4526685;28;20033;-64
2022/02/05 14:24:23;;;;;;;7.33;4.03;;;;;;;;;;4524394;28;39604;-63
2022/02/05 14:26:43;;;;;;;4.07;1.77;;;;;;;;;;4526300;28;20042;-64
2022/02/05 14:28:56;;;;;;;3.08;1.42;;;;;;;;;;4526964;28;20103;-64
2022/02/05 14:33:23;;;;;;;3.35;1.25;;;;;;;;;;4526210;28;20906;-64
2022/02/05 14:40:26;;;;;;;3.55;1.38;;;;;;;;;;4528119;28;20135;-64
2022/02/05 14:42:39;;;;;;;3.00;1.23;;;;;;;;;;4527321;28;20143;-64
2022/02/05 14:44:50;;;;;;;4.15;1.80;;;;;;;;;;4526640;28;20042;-63
2022/02/05 14:47:01;;;;;;;4.25;1.55;;;;;;;;;;4525786;28;20816;-64
2022/02/05 14:49:13;;;;;;;3.63;1.02;;;;;;;;;;4523648;28;20048;-64
2022/02/05 14:51:24;;;;;;;2.75;1.15;;;;;;;;;;4526482;28;20072;-64
2022/02/05 14:53:35;;;;;;;3.88;1.38;;;;;;;;;;4524342;28;20153;-64
2022/02/05 14:55:45;;;;;;;3.67;1.13;;;;;;;;;;4524909;28;20036;-64
2022/02/05 14:57:56;;;;;;;3.47;1.40;;;;;;;;;;4526249;28;20025;-64
2022/02/05 15:00:07;;;;;;;3.83;1.33;;;;;;;;;;4525149;28;20037;-64
2022/02/05 15:02:17;;;;;;;3.37;1.30;;;;;;;;;;4525683;28;20036;-64
2022/02/05 15:04:27;;;;;;;3.37;1.20;;;;;;;;;;4527265;28;20404;-63
2022/02/05 15:06:41;;;;;;;2.67;0.97;;;;;;;;;;4527212;28;20025;-63
2022/02/05 15:08:53;;;;;;;2.55;1.20;;;;;;;;;;4525579;28;20084;-64
2022/02/05 15:11:03;;;;;;;2.65;1.10;;;;;;;;;;4525040;28;20136;-63
2022/02/05 15:13:14;;;;;;;3.40;1.20;;;;;;;;;;4525082;28;20041;-63
2022/02/05 15:15:26;;;;;;;3.20;1.20;;;;;;;;;;4524362;28;43490;-63
2022/02/05 15:17:41;;;;;;;3.72;1.40;;;;;;;;;;4525404;28;20581;-63
2022/02/05 15:19:51;;;;;;;4.38;1.95;;;;;;;;;;4525269;28;20136;-63
2022/02/05 15:22:02;;;;;;;3.43;1.40;;;;;;;;;;4522561;28;20045;-63
2022/02/05 15:24:12;;;;;;;3.07;1.00;;;;;;;;;;4525879;28;20033;-71
2022/02/05 15:26:26;;;;;;;3.57;1.20;;;;;;;;;;4523772;28;20133;-68
2022/02/05 15:28:36;;;;;;;3.03;1.30;;;;;;;;;;4526234;28;20196;-67
2022/02/05 15:30:46;;;;;;;3.87;1.70;;;;;;;;;;4532703;28;35045;-67
2022/02/05 15:32:57;;;;;;;3.63;1.83;;;;;;;;;;4524840;28;20114;-73
2022/02/05 15:35:08;;;;;;;3.47;1.50;;;;;;;;;;4524102;28;20037;-64
2022/02/05 15:37:22;;;;;;;;;;;;;;;;;;4526155;28;20029;-69
2022/02/05 15:39:50;;;;;;;2.03;1.10;;;;;;;;;;4524351;28;19917;-61
2022/02/05 15:44:30;;;;;;;3.03;1.40;;;;;;;;;;4526225;28;20037;-65
2022/02/05 15:46:40;;;;;;;4.22;1.90;;;;;;;;;;4526134;28;20037;-62
2022/02/05 15:48:51;;;;;;;3.70;1.60;;;;;;;;;;4524786;28;20434;-64
2022/02/05 15:51:02;;;;;;;2.83;1.67;;;;;;;;;;4523260;28;20073;-66
2022/02/05 15:53:14;;;;;;;3.65;2.00;;;;;;;;;;4524012;28;20666;-64
2022/02/05 15:55:26;;;;;;;2.70;1.38;;;;;;;;;;4525288;28;20890;-64
2022/02/05 16:00:02;;;;;;;2.95;1.45;;;;;;;;;;4527232;28;20021;-67
2022/02/05 16:02:22;;;;;;;2.90;1.60;;;;;;;;;;4527686;28;20880;-65
2022/02/05 16:04:32;;;;;;;4.17;1.80;;;;;;;;;;4525336;28;32051;-64
2022/02/05 16:06:43;;;;;;;2.23;1.20;;;;;;;;;;4528135;28;20592;-63
2022/02/05 16:08:53;;;;;;;2.30;1.20;;;;;;;;;;4526943;28;44809;-64
2022/02/05 16:11:03;;;;;;;2.80;1.10;;;;;;;;;;4527730;28;20070;-64
2022/02/05 16:13:14;;;;;;;3.47;1.67;;;;;;;;;;4526248;28;42455;-64
2022/02/05 16:15:24;;;;;;;2.37;1.20;;;;;;;;;;4526138;28;32618;-62
2022/02/05 16:17:35;;;;;;;3.00;1.20;;;;;;;;;;4527991;28;20989;-66
2022/02/05 16:19:46;;;;;;;3.07;1.50;;;;;;;;;;4527547;28;20097;-68
2022/02/05 16:21:57;;;;;;;2.30;1.15;;;;;;;;;;4527636;28;20037;-66
2022/02/05 16:24:08;;;;;;;4.70;1.50;;;;;;;;;;4527090;28;20021;-64
2022/02/05 16:26:18;;;;;;;3.43;1.30;;;;;;;;;;4526130;28;33518;-59
2022/02/05 16:28:32;;;;;;;3.03;1.10;;;;;;;;;;4526391;28;20088;-60
2022/02/05 16:30:44;;;;;;;2.83;1.40;;;;;;;;;;4527762;28;20056;-60
2022/02/05 16:32:57;;;;;;;2.78;1.10;;;;;;;;;;4526546;28;20119;-70